sensor_id;sensor_type;location;lat;lon;timestamp;pressure;altitude;pressure_sealevel;temperature
13570;BMP180;6856;51.460;7.158;2023-01-29T00:01:35;101724.00;;;3.00
13570;BMP180;6856;51.460;7.158;2023-01-29T00:04:09;101715.00;;;2.90
13570;BMP180;6856;51.460;7.158;2023-01-29T00:06:43;101717.00;;;2.90
13570;BMP180;6856;51.460;7.158;2023-01-29T00:09:18;101736.00;;;2.90
13570;BMP180;6856;51.460;7.158;2023-01-29T00:11:51;101718.00;;;2.80
13570;BMP180;6856;51.460;7.158;2023-01-29T00:14:26;101728.00;;;2.80
13570;BMP180;6856;51.460;7.158;2023-01-29T00:17:00;101723.00;;;2.80
13570;BMP180;6856;51.460;7.158;2023-01-29T00:19:35;101723.00;;;2.80
13570;BMP180;6856;51.460;7.158;2023-01-29T00:22:08;101726.00;;;2.80
13570;BMP180;6856;51.460;7.158;2023-01-29T00:24:42;101719.00;;;2.80
13570;BMP180;6856;51.460;7.158;2023-01-29T00:27:16;101684.00;;;2.80
13570;BMP180;6856;51.460;7.158;2023-01-29T00:29:52;101708.00;;;2.80
13570;BMP180;6856;51.460;7.158;2023-01-29T00:32:39;101692.00;;;2.80
13570;BMP180;6856;51.460;7.158;2023-01-29T00:35:14;101721.00;;;2.80
13570;BMP180;6856;51.460;7.158;2023-01-29T00:37:47;101705.00;;;2.80
13570;BMP180;6856;51.460;7.158;2023-01-29T00:40:24;101709.00;;;2.80
13570;BMP180;6856;51.460;7.158;2023-01-29T00:42:58;101710.00;;;2.80
13570;BMP180;6856;51.460;7.158;2023-01-29T00:45:50;101711.00;;;2.80
13570;BMP180;6856;51.460;7.158;2023-01-29T00:48:24;101700.00;;;2.80
13570;BMP180;6856;51.460;7.158;2023-01-29T00:50:58;101701.00;;;2.90
13570;BMP180;6856;51.460;7.158;2023-01-29T00:53:31;101711.00;;;2.90
13570;BMP180;6856;51.460;7.158;2023-01-29T00:56:06;101715.00;;;2.90
13570;BMP180;6856;51.460;7.158;2023-01-29T00:58:39;101718.00;;;2.90
13570;BMP180;6856;51.460;7.158;2023-01-29T01:01:14;101714.00;;;2.90
13570;BMP180;6856;51.460;7.158;2023-01-29T01:03:49;101725.00;;;2.90
13570;BMP180;6856;51.460;7.158;2023-01-29T01:06:21;101736.00;;;2.90
13570;BMP180;6856;51.460;7.158;2023-01-29T01:08:55;101735.00;;;2.90
13570;BMP180;6856;51.460;7.158;2023-01-29T01:11:45;101733.00;;;2.90
13570;BMP180;6856;51.460;7.158;2023-01-29T01:14:20;101733.00;;;2.90
13570;BMP180;6856;51.460;7.158;2023-01-29T01:16:55;101721.00;;;2.90
13570;BMP180;6856;51.460;7.158;2023-01-29T01:19:29;101718.00;;;2.90
13570;BMP180;6856;51.460;7.158;2023-01-29T01:22:03;101719.00;;;2.90
13570;BMP180;6856;51.460;7.158;2023-01-29T01:24:38;101715.00;;;2.90
13570;BMP180;6856;51.460;7.158;2023-01-29T01:27:12;101699.00;;;2.90
13570;BMP180;6856;51.460;7.158;2023-01-29T01:29:46;101697.00;;;2.90
13570;BMP180;6856;51.460;7.158;2023-01-29T01:32:21;101678.00;;;2.80
13570;BMP180;6856;51.460;7.158;2023-01-29T01:34:54;101669.00;;;2.70
13570;BMP180;6856;51.460;7.158;2023-01-29T01:37:28;101668.00;;;2.60
13570;BMP180;6856;51.460;7.158;2023-01-29T01:40:02;101672.00;;;2.60
13570;BMP180;6856;51.460;7.158;2023-01-29T01:42:37;101679.00;;;2.60
13570;BMP180;6856;51.460;7.158;2023-01-29T01:45:21;101678.00;;;2.60
13570;BMP180;6856;51.460;7.158;2023-01-29T01:48:03;101685.00;;;2.60
13570;BMP180;6856;51.460;7.158;2023-01-29T01:50:43;101659.00;;;2.60
13570;BMP180;6856;51.460;7.158;2023-01-29T01:53:24;101678.00;;;2.60
13570;BMP180;6856;51.460;7.158;2023-01-29T01:56:08;101677.00;;;2.60
13570;BMP180;6856;51.460;7.158;2023-01-29T01:58:47;101684.00;;;2.60
13570;BMP180;6856;51.460;7.158;2023-01-29T02:01:25;101683.00;;;2.60
13570;BMP180;6856;51.460;7.158;2023-01-29T02:04:06;101675.00;;;2.60
13570;BMP180;6856;51.460;7.158;2023-01-29T02:07:00;101668.00;;;2.60
13570;BMP180;6856;51.460;7.158;2023-01-29T02:09:59;101674.00;;;2.70
13570;BMP180;6856;51.460;7.158;2023-01-29T02:12:36;101691.00;;;2.70
13570;BMP180;6856;51.460;7.158;2023-01-29T02:15:12;101682.00;;;2.70
13570;BMP180;6856;51.460;7.158;2023-01-29T02:17:45;101682.00;;;2.70
13570;BMP180;6856;51.460;7.158;2023-01-29T02:20:25;101682.00;;;2.70
13570;BMP180;6856;51.460;7.158;2023-01-29T02:23:37;101692.00;;;2.80
13570;BMP180;6856;51.460;7.158;2023-01-29T02:27:02;101689.00;;;2.80
13570;BMP180;6856;51.460;7.158;2023-01-29T02:29:52;101706.00;;;2.80
13570;BMP180;6856;51.460;7.158;2023-01-29T02:32:34;101700.00;;;2.80
13570;BMP180;6856;51.460;7.158;2023-01-29T02:35:22;101700.00;;;2.80
13570;BMP180;6856;51.460;7.158;2023-01-29T02:38:12;101695.00;;;2.80
13570;BMP180;6856;51.460;7.158;2023-01-29T02:40:54;101673.00;;;2.80
13570;BMP180;6856;51.460;7.158;2023-01-29T02:43:38;101699.00;;;2.80
13570;BMP180;6856;51.460;7.158;2023-01-29T02:46:28;101706.00;;;2.80
13570;BMP180;6856;51.460;7.158;2023-01-29T02:49:14;101709.00;;;2.70
13570;BMP180;6856;51.460;7.158;2023-01-29T02:51:59;101706.00;;;2.70
13570;BMP180;6856;51.460;7.158;2023-01-29T02:54:49;101693.00;;;2.70
13570;BMP180;6856;51.460;7.158;2023-01-29T02:57:31;101699.00;;;2.70
13570;BMP180;6856;51.460;7.158;2023-01-29T03:00:14;101692.00;;;2.60
13570;BMP180;6856;51.460;7.158;2023-01-29T03:02:57;101693.00;;;2.60
13570;BMP180;6856;51.460;7.158;2023-01-29T03:05:39;101694.00;;;2.60
13570;BMP180;6856;51.460;7.158;2023-01-29T03:08:22;101682.00;;;2.60
13570;BMP180;6856;51.460;7.158;2023-01-29T03:11:10;101694.00;;;2.60
13570;BMP180;6856;51.460;7.158;2023-01-29T03:13:50;101699.00;;;2.60
13570;BMP180;6856;51.460;7.158;2023-01-29T03:16:30;101691.00;;;2.50
13570;BMP180;6856;51.460;7.158;2023-01-29T03:19:13;101687.00;;;2.60
13570;BMP180;6856;51.460;7.158;2023-01-29T03:21:54;101683.00;;;2.50
13570;BMP180;6856;51.460;7.158;2023-01-29T03:24:39;101682.00;;;2.50
13570;BMP180;6856;51.460;7.158;2023-01-29T03:27:36;101672.00;;;2.40
13570;BMP180;6856;51.460;7.158;2023-01-29T03:30:32;101682.00;;;2.40
13570;BMP180;6856;51.460;7.158;2023-01-29T03:33:27;101682.00;;;2.30
13570;BMP180;6856;51.460;7.158;2023-01-29T03:36:12;101682.00;;;2.30
13570;BMP180;6856;51.460;7.158;2023-01-29T03:38:47;101694.00;;;2.30
13570;BMP180;6856;51.460;7.158;2023-01-29T03:41:26;101686.00;;;2.30
13570;BMP180;6856;51.460;7.158;2023-01-29T03:44:13;101682.00;;;2.30
13570;BMP180;6856;51.460;7.158;2023-01-29T03:46:55;101682.00;;;2.30
13570;BMP180;6856;51.460;7.158;2023-01-29T03:49:45;101679.00;;;2.30
13570;BMP180;6856;51.460;7.158;2023-01-29T03:52:30;101687.00;;;2.30
13570;BMP180;6856;51.460;7.158;2023-01-29T03:55:14;101680.00;;;2.30
13570;BMP180;6856;51.460;7.158;2023-01-29T03:57:56;101682.00;;;2.30
13570;BMP180;6856;51.460;7.158;2023-01-29T04:00:36;101677.00;;;2.40
13570;BMP180;6856;51.460;7.158;2023-01-29T04:03:19;101673.00;;;2.40
13570;BMP180;6856;51.460;7.158;2023-01-29T04:06:00;101677.00;;;2.40
13570;BMP180;6856;51.460;7.158;2023-01-29T04:08:50;101681.00;;;2.40
13570;BMP180;6856;51.460;7.158;2023-01-29T04:11:26;101679.00;;;2.40
13570;BMP180;6856;51.460;7.158;2023-01-29T04:14:02;101681.00;;;2.40
13570;BMP180;6856;51.460;7.158;2023-01-29T04:16:40;101668.00;;;2.50
13570;BMP180;6856;51.460;7.158;2023-01-29T04:19:15;101661.00;;;2.50
13570;BMP180;6856;51.460;7.158;2023-01-29T04:21:54;101663.00;;;2.60
13570;BMP180;6856;51.460;7.158;2023-01-29T04:24:33;101651.00;;;2.60
13570;BMP180;6856;51.460;7.158;2023-01-29T04:27:25;101648.00;;;2.60
13570;BMP180;6856;51.460;7.158;2023-01-29T04:30:12;101640.00;;;2.70
13570;BMP180;6856;51.460;7.158;2023-01-29T04:33:03;101646.00;;;2.70
13570;BMP180;6856;51.460;7.158;2023-01-29T04:35:58;101640.00;;;2.70
13570;BMP180;6856;51.460;7.158;2023-01-29T04:38:56;101649.00;;;2.70
13570;BMP180;6856;51.460;7.158;2023-01-29T04:41:40;101660.00;;;2.70
13570;BMP180;6856;51.460;7.158;2023-01-29T04:44:20;101646.00;;;2.70
13570;BMP180;6856;51.460;7.158;2023-01-29T04:47:05;101631.00;;;2.70
13570;BMP180;6856;51.460;7.158;2023-01-29T04:49:46;101637.00;;;2.70
13570;BMP180;6856;51.460;7.158;2023-01-29T04:52:28;101637.00;;;2.70
13570;BMP180;6856;51.460;7.158;2023-01-29T04:55:12;101636.00;;;2.70
13570;BMP180;6856;51.460;7.158;2023-01-29T04:58:00;101628.00;;;2.70
13570;BMP180;6856;51.460;7.158;2023-01-29T05:00:39;101639.00;;;2.60
13570;BMP180;6856;51.460;7.158;2023-01-29T05:03:15;101618.00;;;2.60
13570;BMP180;6856;51.460;7.158;2023-01-29T05:05:51;101624.00;;;2.60
13570;BMP180;6856;51.460;7.158;2023-01-29T05:08:30;101620.00;;;2.60
13570;BMP180;6856;51.460;7.158;2023-01-29T05:11:05;101625.00;;;2.60
13570;BMP180;6856;51.460;7.158;2023-01-29T05:13:42;101615.00;;;2.60
13570;BMP180;6856;51.460;7.158;2023-01-29T05:16:20;101602.00;;;2.60
13570;BMP180;6856;51.460;7.158;2023-01-29T05:18:56;101594.00;;;2.60
13570;BMP180;6856;51.460;7.158;2023-01-29T05:21:31;101592.00;;;2.60
13570;BMP180;6856;51.460;7.158;2023-01-29T05:24:08;101582.00;;;2.60
13570;BMP180;6856;51.460;7.158;2023-01-29T05:26:45;101584.00;;;2.60
13570;BMP180;6856;51.460;7.158;2023-01-29T05:29:42;101578.00;;;2.60
13570;BMP180;6856;51.460;7.158;2023-01-29T05:32:17;101571.00;;;2.60
13570;BMP180;6856;51.460;7.158;2023-01-29T05:34:51;101579.00;;;2.60
13570;BMP180;6856;51.460;7.158;2023-01-29T05:37:25;101582.00;;;2.50
13570;BMP180;6856;51.460;7.158;2023-01-29T05:39:59;101568.00;;;2.50
13570;BMP180;6856;51.460;7.158;2023-01-29T05:42:33;101580.00;;;2.50
13570;BMP180;6856;51.460;7.158;2023-01-29T05:45:10;101584.00;;;2.50
13570;BMP180;6856;51.460;7.158;2023-01-29T05:47:44;101579.00;;;2.60
13570;BMP180;6856;51.460;7.158;2023-01-29T05:50:18;101583.00;;;2.60
13570;BMP180;6856;51.460;7.158;2023-01-29T05:52:56;101563.00;;;2.60
13570;BMP180;6856;51.460;7.158;2023-01-29T05:55:29;101590.00;;;2.60
13570;BMP180;6856;51.460;7.158;2023-01-29T05:58:03;101601.00;;;2.70
13570;BMP180;6856;51.460;7.158;2023-01-29T06:00:39;101607.00;;;2.70
13570;BMP180;6856;51.460;7.158;2023-01-29T06:03:14;101604.00;;;2.70
13570;BMP180;6856;51.460;7.158;2023-01-29T06:05:48;101607.00;;;2.70
13570;BMP180;6856;51.460;7.158;2023-01-29T06:08:21;101614.00;;;2.70
13570;BMP180;6856;51.460;7.158;2023-01-29T06:10:55;101624.00;;;2.70
13570;BMP180;6856;51.460;7.158;2023-01-29T06:13:29;101628.00;;;2.80
13570;BMP180;6856;51.460;7.158;2023-01-29T06:16:06;101624.00;;;2.70
13570;BMP180;6856;51.460;7.158;2023-01-29T06:18:42;101640.00;;;2.80
13570;BMP180;6856;51.460;7.158;2023-01-29T06:21:16;101639.00;;;2.80
13570;BMP180;6856;51.460;7.158;2023-01-29T06:23:51;101627.00;;;2.80
13570;BMP180;6856;51.460;7.158;2023-01-29T06:26:26;101639.00;;;2.90
13570;BMP180;6856;51.460;7.158;2023-01-29T06:28:59;101642.00;;;2.90
13570;BMP180;6856;51.460;7.158;2023-01-29T06:31:35;101648.00;;;2.90
13570;BMP180;6856;51.460;7.158;2023-01-29T06:34:10;101652.00;;;2.90
13570;BMP180;6856;51.460;7.158;2023-01-29T06:36:44;101642.00;;;2.90
13570;BMP180;6856;51.460;7.158;2023-01-29T06:39:17;101644.00;;;3.00
13570;BMP180;6856;51.460;7.158;2023-01-29T06:41:51;101627.00;;;3.00
13570;BMP180;6856;51.460;7.158;2023-01-29T06:44:24;101600.00;;;3.00
13570;BMP180;6856;51.460;7.158;2023-01-29T06:47:00;101626.00;;;3.00
13570;BMP180;6856;51.460;7.158;2023-01-29T06:49:35;101631.00;;;3.00
13570;BMP180;6856;51.460;7.158;2023-01-29T06:52:08;101629.00;;;3.00
13570;BMP180;6856;51.460;7.158;2023-01-29T06:54:42;101637.00;;;3.00
13570;BMP180;6856;51.460;7.158;2023-01-29T06:57:15;101638.00;;;3.00
13570;BMP180;6856;51.460;7.158;2023-01-29T06:59:49;101641.00;;;3.00
13570;BMP180;6856;51.460;7.158;2023-01-29T07:02:23;101632.00;;;3.00
13570;BMP180;6856;51.460;7.158;2023-01-29T07:05:00;101625.00;;;3.00
13570;BMP180;6856;51.460;7.158;2023-01-29T07:07:34;101595.00;;;3.00
13570;BMP180;6856;51.460;7.158;2023-01-29T07:10:09;101626.00;;;3.00
13570;BMP180;6856;51.460;7.158;2023-01-29T07:12:45;101628.00;;;3.00
13570;BMP180;6856;51.460;7.158;2023-01-29T07:15:18;101605.00;;;3.00
13570;BMP180;6856;51.460;7.158;2023-01-29T07:17:59;101626.00;;;3.00
13570;BMP180;6856;51.460;7.158;2023-01-29T07:20:34;101634.00;;;3.00
13570;BMP180;6856;51.460;7.158;2023-01-29T07:23:11;101618.00;;;3.00
13570;BMP180;6856;51.460;7.158;2023-01-29T07:25:45;101616.00;;;3.10
13570;BMP180;6856;51.460;7.158;2023-01-29T07:28:21;101618.00;;;3.10
13570;BMP180;6856;51.460;7.158;2023-01-29T07:30:56;101616.00;;;3.10
13570;BMP180;6856;51.460;7.158;2023-01-29T07:33:31;101620.00;;;3.10
13570;BMP180;6856;51.460;7.158;2023-01-29T07:36:07;101615.00;;;3.10
13570;BMP180;6856;51.460;7.158;2023-01-29T07:38:41;101619.00;;;3.10
13570;BMP180;6856;51.460;7.158;2023-01-29T07:41:17;101627.00;;;3.20
13570;BMP180;6856;51.460;7.158;2023-01-29T07:43:51;101635.00;;;3.20
13570;BMP180;6856;51.460;7.158;2023-01-29T07:46:25;101612.00;;;3.20
13570;BMP180;6856;51.460;7.158;2023-01-29T07:49:00;101600.00;;;3.20
13570;BMP180;6856;51.460;7.158;2023-01-29T07:51:34;101604.00;;;3.30
13570;BMP180;6856;51.460;7.158;2023-01-29T07:54:08;101609.00;;;3.30
13570;BMP180;6856;51.460;7.158;2023-01-29T07:56:42;101618.00;;;3.30
13570;BMP180;6856;51.460;7.158;2023-01-29T07:59:16;101577.00;;;3.30
13570;BMP180;6856;51.460;7.158;2023-01-29T08:01:49;101602.00;;;3.30
13570;BMP180;6856;51.460;7.158;2023-01-29T08:04:24;101604.00;;;3.30
13570;BMP180;6856;51.460;7.158;2023-01-29T08:06:58;101607.00;;;3.30
13570;BMP180;6856;51.460;7.158;2023-01-29T08:09:32;101601.00;;;3.30
13570;BMP180;6856;51.460;7.158;2023-01-29T08:12:06;101607.00;;;3.30
13570;BMP180;6856;51.460;7.158;2023-01-29T08:14:40;101615.00;;;3.30
13570;BMP180;6856;51.460;7.158;2023-01-29T08:17:13;101606.00;;;3.40
13570;BMP180;6856;51.460;7.158;2023-01-29T08:19:51;101604.00;;;3.40
13570;BMP180;6856;51.460;7.158;2023-01-29T08:22:24;101619.00;;;3.40
13570;BMP180;6856;51.460;7.158;2023-01-29T08:24:58;101607.00;;;3.40
13570;BMP180;6856;51.460;7.158;2023-01-29T08:27:40;101613.00;;;3.40
13570;BMP180;6856;51.460;7.158;2023-01-29T08:30:14;101613.00;;;3.40
13570;BMP180;6856;51.460;7.158;2023-01-29T08:32:49;101609.00;;;3.40
13570;BMP180;6856;51.460;7.158;2023-01-29T08:35:25;101613.00;;;3.40
13570;BMP180;6856;51.460;7.158;2023-01-29T08:38:00;101603.00;;;3.50
13570;BMP180;6856;51.460;7.158;2023-01-29T08:40:35;101599.00;;;3.50
13570;BMP180;6856;51.460;7.158;2023-01-29T08:43:11;101590.00;;;3.50
13570;BMP180;6856;51.460;7.158;2023-01-29T08:45:44;101601.00;;;3.60
13570;BMP180;6856;51.460;7.158;2023-01-29T08:48:21;101582.00;;;3.60
13570;BMP180;6856;51.460;7.158;2023-01-29T08:50:58;101585.00;;;3.60
13570;BMP180;6856;51.460;7.158;2023-01-29T08:53:32;101574.00;;;3.70
13570;BMP180;6856;51.460;7.158;2023-01-29T08:56:06;101575.00;;;3.70
13570;BMP180;6856;51.460;7.158;2023-01-29T08:58:40;101574.00;;;3.70
13570;BMP180;6856;51.460;7.158;2023-01-29T09:01:14;101579.00;;;3.70
13570;BMP180;6856;51.460;7.158;2023-01-29T09:03:47;101587.00;;;3.70
13570;BMP180;6856;51.460;7.158;2023-01-29T09:06:23;101577.00;;;3.70
13570;BMP180;6856;51.460;7.158;2023-01-29T09:08:57;101579.00;;;3.70
13570;BMP180;6856;51.460;7.158;2023-01-29T09:11:30;101583.00;;;3.70
13570;BMP180;6856;51.460;7.158;2023-01-29T09:14:05;101568.00;;;3.70
13570;BMP180;6856;51.460;7.158;2023-01-29T09:16:38;101574.00;;;3.70
13570;BMP180;6856;51.460;7.158;2023-01-29T09:19:12;101560.00;;;3.70
13570;BMP180;6856;51.460;7.158;2023-01-29T09:21:46;101566.00;;;3.70
13570;BMP180;6856;51.460;7.158;2023-01-29T09:24:22;101555.00;;;3.70
13570;BMP180;6856;51.460;7.158;2023-01-29T09:26:55;101546.00;;;3.70
13570;BMP180;6856;51.460;7.158;2023-01-29T09:29:29;101542.00;;;3.70
13570;BMP180;6856;51.460;7.158;2023-01-29T09:32:06;101542.00;;;3.70
13570;BMP180;6856;51.460;7.158;2023-01-29T09:34:39;101549.00;;;3.70
13570;BMP180;6856;51.460;7.158;2023-01-29T09:37:14;101538.00;;;3.80
13570;BMP180;6856;51.460;7.158;2023-01-29T09:39:48;101546.00;;;3.80
13570;BMP180;6856;51.460;7.158;2023-01-29T09:42:26;101543.00;;;3.80
13570;BMP180;6856;51.460;7.158;2023-01-29T09:45:09;101542.00;;;3.80
13570;BMP180;6856;51.460;7.158;2023-01-29T09:47:44;101539.00;;;3.80
13570;BMP180;6856;51.460;7.158;2023-01-29T09:50:34;101542.00;;;3.80
13570;BMP180;6856;51.460;7.158;2023-01-29T09:53:20;101544.00;;;3.80
13570;BMP180;6856;51.460;7.158;2023-01-29T09:56:02;101545.00;;;3.80
13570;BMP180;6856;51.460;7.158;2023-01-29T09:58:39;101528.00;;;3.80
13570;BMP180;6856;51.460;7.158;2023-01-29T10:01:24;101537.00;;;3.80
13570;BMP180;6856;51.460;7.158;2023-01-29T10:04:34;101547.00;;;3.90
13570;BMP180;6856;51.460;7.158;2023-01-29T10:07:40;101545.00;;;3.90
13570;BMP180;6856;51.460;7.158;2023-01-29T10:10:47;101540.00;;;3.90
13570;BMP180;6856;51.460;7.158;2023-01-29T10:13:32;101538.00;;;3.90
13570;BMP180;6856;51.460;7.158;2023-01-29T10:16:26;101533.00;;;3.90
13570;BMP180;6856;51.460;7.158;2023-01-29T10:19:38;101553.00;;;4.00
13570;BMP180;6856;51.460;7.158;2023-01-29T10:22:44;101546.00;;;4.00
13570;BMP180;6856;51.460;7.158;2023-01-29T10:25:23;101542.00;;;4.00
13570;BMP180;6856;51.460;7.158;2023-01-29T10:27:59;101537.00;;;4.00
13570;BMP180;6856;51.460;7.158;2023-01-29T10:30:38;101543.00;;;4.00
13570;BMP180;6856;51.460;7.158;2023-01-29T10:33:25;101539.00;;;4.00
13570;BMP180;6856;51.460;7.158;2023-01-29T10:36:13;101523.00;;;4.10
13570;BMP180;6856;51.460;7.158;2023-01-29T10:38:50;101518.00;;;4.10
13570;BMP180;6856;51.460;7.158;2023-01-29T10:41:43;101513.00;;;4.10
13570;BMP180;6856;51.460;7.158;2023-01-29T10:44:37;101505.00;;;4.10
13570;BMP180;6856;51.460;7.158;2023-01-29T10:47:53;101512.00;;;4.10
13570;BMP180;6856;51.460;7.158;2023-01-29T10:50:46;101511.00;;;4.10
13570;BMP180;6856;51.460;7.158;2023-01-29T10:53:38;101489.00;;;4.20
13570;BMP180;6856;51.460;7.158;2023-01-29T10:56:38;101501.00;;;4.20
13570;BMP180;6856;51.460;7.158;2023-01-29T10:59:38;101508.00;;;4.30
13570;BMP180;6856;51.460;7.158;2023-01-29T11:02:16;101490.00;;;4.30
13570;BMP180;6856;51.460;7.158;2023-01-29T11:04:50;101492.00;;;4.30
13570;BMP180;6856;51.460;7.158;2023-01-29T11:07:24;101481.00;;;4.30
13570;BMP180;6856;51.460;7.158;2023-01-29T11:10:07;101466.00;;;4.30
13570;BMP180;6856;51.460;7.158;2023-01-29T11:12:49;101474.00;;;4.40
13570;BMP180;6856;51.460;7.158;2023-01-29T11:15:30;101468.00;;;4.40
13570;BMP180;6856;51.460;7.158;2023-01-29T11:18:07;101467.00;;;4.40
13570;BMP180;6856;51.460;7.158;2023-01-29T11:20:58;101454.00;;;4.40
13570;BMP180;6856;51.460;7.158;2023-01-29T11:23:33;101457.00;;;4.40
13570;BMP180;6856;51.460;7.158;2023-01-29T11:26:12;101464.00;;;4.40
13570;BMP180;6856;51.460;7.158;2023-01-29T11:28:48;101459.00;;;4.40
13570;BMP180;6856;51.460;7.158;2023-01-29T11:31:27;101453.00;;;4.40
13570;BMP180;6856;51.460;7.158;2023-01-29T11:34:11;101446.00;;;4.40
13570;BMP180;6856;51.460;7.158;2023-01-29T11:36:55;101447.00;;;4.40
13570;BMP180;6856;51.460;7.158;2023-01-29T11:39:31;101450.00;;;4.40
13570;BMP180;6856;51.460;7.158;2023-01-29T11:42:05;101445.00;;;4.40
13570;BMP180;6856;51.460;7.158;2023-01-29T11:44:46;101447.00;;;4.50
13570;BMP180;6856;51.460;7.158;2023-01-29T11:47:25;101423.00;;;4.50
13570;BMP180;6856;51.460;7.158;2023-01-29T11:50:01;101439.00;;;4.50
13570;BMP180;6856;51.460;7.158;2023-01-29T11:52:38;101423.00;;;4.50
13570;BMP180;6856;51.460;7.158;2023-01-29T11:55:18;101417.00;;;4.50
13570;BMP180;6856;51.460;7.158;2023-01-29T11:58:00;101413.00;;;4.60
13570;BMP180;6856;51.460;7.158;2023-01-29T12:00:39;101408.00;;;4.60
13570;BMP180;6856;51.460;7.158;2023-01-29T12:03:21;101404.00;;;4.60
13570;BMP180;6856;51.460;7.158;2023-01-29T12:06:00;101400.00;;;4.60
13570;BMP180;6856;51.460;7.158;2023-01-29T12:08:37;101374.00;;;4.60
13570;BMP180;6856;51.460;7.158;2023-01-29T12:11:14;101390.00;;;4.60
13570;BMP180;6856;51.460;7.158;2023-01-29T12:13:58;101376.00;;;4.60
13570;BMP180;6856;51.460;7.158;2023-01-29T12:16:42;101359.00;;;4.60
13570;BMP180;6856;51.460;7.158;2023-01-29T12:19:30;101352.00;;;4.70
13570;BMP180;6856;51.460;7.158;2023-01-29T12:22:15;101350.00;;;4.70
13570;BMP180;6856;51.460;7.158;2023-01-29T12:24:56;101341.00;;;4.60
13570;BMP180;6856;51.460;7.158;2023-01-29T12:27:38;101330.00;;;4.60
13570;BMP180;6856;51.460;7.158;2023-01-29T12:30:22;101322.00;;;4.60
13570;BMP180;6856;51.460;7.158;2023-01-29T12:33:05;101312.00;;;4.60
13570;BMP180;6856;51.460;7.158;2023-01-29T12:35:55;101306.00;;;4.60
13570;BMP180;6856;51.460;7.158;2023-01-29T12:38:31;101295.00;;;4.60
13570;BMP180;6856;51.460;7.158;2023-01-29T12:41:14;101297.00;;;4.60
13570;BMP180;6856;51.460;7.158;2023-01-29T12:43:58;101292.00;;;4.60
13570;BMP180;6856;51.460;7.158;2023-01-29T12:46:40;101288.00;;;4.70
13570;BMP180;6856;51.460;7.158;2023-01-29T12:49:22;101285.00;;;4.70
13570;BMP180;6856;51.460;7.158;2023-01-29T12:52:06;101281.00;;;4.80
13570;BMP180;6856;51.460;7.158;2023-01-29T12:54:48;101276.00;;;4.80
13570;BMP180;6856;51.460;7.158;2023-01-29T12:57:35;101285.00;;;4.90
13570;BMP180;6856;51.460;7.158;2023-01-29T13:00:17;101279.00;;;4.90
13570;BMP180;6856;51.460;7.158;2023-01-29T13:02:58;101287.00;;;4.90
13570;BMP180;6856;51.460;7.158;2023-01-29T13:05:39;101288.00;;;4.90
13570;BMP180;6856;51.460;7.158;2023-01-29T13:08:20;101282.00;;;4.90
13570;BMP180;6856;51.460;7.158;2023-01-29T13:11:00;101268.00;;;4.90
13570;BMP180;6856;51.460;7.158;2023-01-29T13:13:43;101273.00;;;5.00
13570;BMP180;6856;51.460;7.158;2023-01-29T13:16:30;101273.00;;;4.90
13570;BMP180;6856;51.460;7.158;2023-01-29T13:19:21;101278.00;;;4.90
13570;BMP180;6856;51.460;7.158;2023-01-29T13:22:02;101268.00;;;5.00
13570;BMP180;6856;51.460;7.158;2023-01-29T13:24:45;101271.00;;;5.00
13570;BMP180;6856;51.460;7.158;2023-01-29T13:27:36;101279.00;;;5.00
13570;BMP180;6856;51.460;7.158;2023-01-29T13:30:25;101277.00;;;5.00
13570;BMP180;6856;51.460;7.158;2023-01-29T13:33:03;101281.00;;;5.00
13570;BMP180;6856;51.460;7.158;2023-01-29T13:35:44;101275.00;;;5.00
13570;BMP180;6856;51.460;7.158;2023-01-29T13:38:23;101271.00;;;5.00
13570;BMP180;6856;51.460;7.158;2023-01-29T13:41:02;101272.00;;;5.00
13570;BMP180;6856;51.460;7.158;2023-01-29T13:43:40;101263.00;;;5.10
13570;BMP180;6856;51.460;7.158;2023-01-29T13:46:17;101280.00;;;5.10
13570;BMP180;6856;51.460;7.158;2023-01-29T13:48:52;101291.00;;;5.10
13570;BMP180;6856;51.460;7.158;2023-01-29T13:51:35;101287.00;;;5.10
13570;BMP180;6856;51.460;7.158;2023-01-29T13:54:20;101276.00;;;5.10
13570;BMP180;6856;51.460;7.158;2023-01-29T13:57:47;101276.00;;;5.20
13570;BMP180;6856;51.460;7.158;2023-01-29T14:00:56;101277.00;;;5.10
13570;BMP180;6856;51.460;7.158;2023-01-29T14:03:51;101272.00;;;5.10
13570;BMP180;6856;51.460;7.158;2023-01-29T14:06:47;101259.00;;;5.10
13570;BMP180;6856;51.460;7.158;2023-01-29T14:10:12;101262.00;;;5.10
13570;BMP180;6856;51.460;7.158;2023-01-29T14:12:54;101251.00;;;5.10
13570;BMP180;6856;51.460;7.158;2023-01-29T14:16:31;101253.00;;;5.10
13570;BMP180;6856;51.460;7.158;2023-01-29T14:19:06;101236.00;;;5.10
13570;BMP180;6856;51.460;7.158;2023-01-29T14:21:40;101247.00;;;5.10
13570;BMP180;6856;51.460;7.158;2023-01-29T14:24:18;101244.00;;;5.10
13570;BMP180;6856;51.460;7.158;2023-01-29T14:26:54;101253.00;;;5.10
13570;BMP180;6856;51.460;7.158;2023-01-29T14:29:38;101250.00;;;5.10
13570;BMP180;6856;51.460;7.158;2023-01-29T14:32:19;101248.00;;;5.10
13570;BMP180;6856;51.460;7.158;2023-01-29T14:34:59;101250.00;;;5.00
13570;BMP180;6856;51.460;7.158;2023-01-29T14:37:37;101239.00;;;5.00
13570;BMP180;6856;51.460;7.158;2023-01-29T14:40:20;101232.00;;;5.10
13570;BMP180;6856;51.460;7.158;2023-01-29T14:42:59;101235.00;;;5.10
13570;BMP180;6856;51.460;7.158;2023-01-29T14:45:37;101243.00;;;5.10
13570;BMP180;6856;51.460;7.158;2023-01-29T14:48:45;101236.00;;;5.10
13570;BMP180;6856;51.460;7.158;2023-01-29T14:51:24;101236.00;;;5.10
13570;BMP180;6856;51.460;7.158;2023-01-29T14:54:03;101241.00;;;5.10
13570;BMP180;6856;51.460;7.158;2023-01-29T14:56:47;101237.00;;;5.10
13570;BMP180;6856;51.460;7.158;2023-01-29T14:59:32;101237.00;;;5.10
13570;BMP180;6856;51.460;7.158;2023-01-29T15:02:19;101226.00;;;5.10
13570;BMP180;6856;51.460;7.158;2023-01-29T15:04:57;101228.00;;;5.10
13570;BMP180;6856;51.460;7.158;2023-01-29T15:07:38;101214.00;;;5.10
13570;BMP180;6856;51.460;7.158;2023-01-29T15:10:18;101215.00;;;5.10
13570;BMP180;6856;51.460;7.158;2023-01-29T15:13:02;101209.00;;;5.10
13570;BMP180;6856;51.460;7.158;2023-01-29T15:15:43;101213.00;;;5.10
13570;BMP180;6856;51.460;7.158;2023-01-29T15:18:31;101214.00;;;5.10
13570;BMP180;6856;51.460;7.158;2023-01-29T15:21:11;101205.00;;;5.10
13570;BMP180;6856;51.460;7.158;2023-01-29T15:23:47;101207.00;;;5.10
13570;BMP180;6856;51.460;7.158;2023-01-29T15:26:23;101202.00;;;5.10
13570;BMP180;6856;51.460;7.158;2023-01-29T15:29:00;101213.00;;;5.10
13570;BMP180;6856;51.460;7.158;2023-01-29T15:31:36;101186.00;;;5.10
13570;BMP180;6856;51.460;7.158;2023-01-29T15:34:14;101202.00;;;5.10
13570;BMP180;6856;51.460;7.158;2023-01-29T15:36:49;101196.00;;;5.10
13570;BMP180;6856;51.460;7.158;2023-01-29T15:39:24;101207.00;;;5.10